Time;durP1;ratioP1;P1;durP2;ratioP2;P2;SDS_P1;SDS_P2;PMS_P1;PMS_P2;Temp;Humidity;BMP_temperature;BMP_pressure;BME280_temperature;BME280_humidity;BME280_pressure;Samples;Min_cycle;Max_cycle;Signal;HPM_P1;HPM_P2
2023/03/19 00:01:43;;;;;;;;;;;7.73;-3.22;;;;;;2670255;76;20930;-88
2023/03/19 00:05:11;;;;;;;;;;;7.69;-3.13;;;;;;2670837;76;21392;-87
2023/03/19 00:08:39;;;;;;;;;;;7.65;-3.06;;;;;;2670543;76;20796;-89
2023/03/19 00:12:07;;;;;;;;;;;7.62;-3.02;;;;;;2670140;76;20448;-88
2023/03/19 00:15:35;;;;;;;;;;;7.58;-2.85;;;;;;2670497;76;20439;-87
2023/03/19 00:19:03;;;;;;;;;;;7.50;-2.73;;;;;;2670340;76;20769;-88
2023/03/19 00:22:32;;;;;;;;;;;7.50;-2.63;;;;;;2669818;76;20315;-88
2023/03/19 00:26:00;;;;;;;;;;;7.44;-2.52;;;;;;2670472;76;20445;-89
2023/03/19 00:29:28;;;;;;;;;;;7.41;-2.50;;;;;;2669609;76;20549;-89
2023/03/19 00:32:56;;;;;;;;;;;7.39;-2.41;;;;;;2670353;76;20959;-88
2023/03/19 00:36:25;;;;;;;;;;;7.37;-2.22;;;;;;2670408;76;20596;-88
2023/03/19 00:39:53;;;;;;;;;;;7.34;-2.12;;;;;;2670435;76;21219;-88
2023/03/19 00:43:21;;;;;;;;;;;7.40;-2.03;;;;;;2669942;76;20480;-88
2023/03/19 00:46:49;;;;;;;;;;;7.38;-2.08;;;;;;2670309;76;20420;-88
2023/03/19 00:50:17;;;;;;;;;;;7.33;-2.09;;;;;;2670191;76;21387;-88
2023/03/19 00:53:45;;;;;;;;;;;7.25;-2.01;;;;;;2670143;76;20477;-88
2023/03/19 00:57:13;;;;;;;;;;;7.19;-1.99;;;;;;2670184;76;20459;-88
2023/03/19 01:00:41;;;;;;;;;;;7.14;-1.99;;;;;;2669639;76;20457;-88
2023/03/19 01:04:10;;;;;;;;;;;7.07;-1.94;;;;;;2668371;76;20731;-88
2023/03/19 01:07:38;;;;;;;;;;;6.99;-1.92;;;;;;2668991;76;20440;-87
2023/03/19 01:11:06;;;;;;;;;;;6.94;-1.86;;;;;;2669104;76;20407;-88
2023/03/19 01:14:34;;;;;;;;;;;6.86;-1.80;;;;;;2669508;76;20417;-88
2023/03/19 01:18:02;;;;;;;;;;;6.82;-1.80;;;;;;2669653;76;20825;-87
2023/03/19 01:21:30;;;;;;;;;;;6.73;-1.57;;;;;;2669405;76;20446;-87
2023/03/19 01:24:58;;;;;;;;;;;6.70;-1.45;;;;;;2671186;76;20315;-88
2023/03/19 01:28:26;;;;;;;;;;;6.63;-1.18;;;;;;2670303;76;20446;-87
2023/03/19 01:31:55;;;;;;;;;;;6.60;-1.10;;;;;;2670279;76;20310;-87
2023/03/19 01:35:23;;;;;;;;;;;6.58;-1.07;;;;;;2669421;76;20560;-86
2023/03/19 01:38:51;;;;;;;;;;;6.55;-0.67;;;;;;2669684;76;20428;-87
2023/03/19 01:42:19;;;;;;;;;;;6.55;-0.33;;;;;;2670134;76;20448;-86
2023/03/19 01:45:47;;;;;;;;;;;6.56;-0.47;;;;;;2669963;76;20473;-87
2023/03/19 01:49:15;;;;;;;;;;;6.55;-0.53;;;;;;2668881;76;20423;-87
2023/03/19 01:52:43;;;;;;;;;;;6.55;-0.49;;;;;;2669586;76;20457;-87
2023/03/19 01:56:11;;;;;;;;;;;6.52;-0.50;;;;;;2669940;76;20310;-88
2023/03/19 01:59:40;;;;;;;;;;;6.52;-0.48;;;;;;2668990;76;21072;-88
2023/03/19 02:03:08;;;;;;;;;;;6.51;-0.52;;;;;;2670614;76;20488;-88
2023/03/19 02:06:37;;;;;;;;;;;6.51;-0.50;;;;;;2669334;76;20486;-89
2023/03/19 02:10:06;;;;;;;;;;;6.49;-0.42;;;;;;2669953;76;20469;-88
2023/03/19 02:13:34;;;;;;;;;;;6.49;-0.26;;;;;;2669644;76;20368;-89
2023/03/19 02:17:02;;;;;;;;;;;6.46;-0.20;;;;;;2670556;76;20420;-89
2023/03/19 02:20:36;;;;;;;;;;;6.50;-0.12;;;;;;2668406;76;20976;-88
2023/03/19 02:24:05;;;;;;;;;;;6.52;0.13;;;;;;2669756;76;20350;-89
2023/03/19 02:27:33;;;;;;;;;;;6.50;0.35;;;;;;2667581;76;20504;-89
2023/03/19 02:31:01;;;;;;;;;;;6.51;0.25;;;;;;2669871;76;20699;-88
2023/03/19 02:34:30;;;;;;;;;;;6.46;0.19;;;;;;2667586;76;20920;-89
2023/03/19 02:37:58;;;;;;;;;;;6.43;0.23;;;;;;2668213;76;20463;-89
2023/03/19 02:41:26;;;;;;;;;;;6.38;0.29;;;;;;2668586;76;20466;-89
2023/03/19 02:44:54;;;;;;;;;;;6.38;0.37;;;;;;2669529;76;20443;-89
2023/03/19 02:48:25;;;;;;;;;;;6.36;0.39;;;;;;2668152;76;20432;-91
2023/03/19 02:51:53;;;;;;;;;;;6.35;0.43;;;;;;2669252;76;20902;-89
2023/03/19 02:55:22;;;;;;;;;;;6.31;0.58;;;;;;2668610;76;20441;-91
2023/03/19 02:58:53;;;;;;;;;;;6.28;1.00;;;;;;2668213;76;20782;-89
2023/03/19 03:02:37;;;;;;;;;;;6.20;2.03;;;;;;2667504;76;20496;-89
2023/03/19 03:06:08;;;;;;;;;;;6.19;2.35;;;;;;2669273;76;20422;-89
2023/03/19 03:09:36;;;;;;;;;;;6.16;2.13;;;;;;2668096;76;20448;-89
2023/03/19 03:13:05;;;;;;;;;;;6.20;1.90;;;;;;2669011;76;21046;-89
2023/03/19 03:16:34;;;;;;;;;;;6.22;1.73;;;;;;2669324;76;20451;-88
2023/03/19 03:20:02;;;;;;;;;;;6.20;1.68;;;;;;2667836;76;20989;-89
2023/03/19 03:23:30;;;;;;;;;;;6.16;1.81;;;;;;2670465;76;20516;-88
2023/03/19 03:26:58;;;;;;;;;;;6.16;1.91;;;;;;2669951;76;20436;-88
2023/03/19 03:30:26;;;;;;;;;;;6.20;2.09;;;;;;2670241;76;20436;-88
2023/03/19 03:33:54;;;;;;;;;;;6.20;2.77;;;;;;2669998;76;20916;-89
2023/03/19 03:37:22;;;;;;;;;;;6.28;2.75;;;;;;2669186;76;20486;-88
2023/03/19 03:40:51;;;;;;;;;;;6.38;2.65;;;;;;2669766;76;20477;-88
2023/03/19 03:44:19;;;;;;;;;;;6.40;2.83;;;;;;2670383;76;20368;-88
2023/03/19 03:47:47;;;;;;;;;;;6.42;2.87;;;;;;2669022;76;20497;-89
2023/03/19 03:51:16;;;;;;;;;;;6.43;2.86;;;;;;2668610;76;20469;-88
2023/03/19 03:54:44;;;;;;;;;;;6.34;3.71;;;;;;2669849;76;20458;-88
2023/03/19 03:58:12;;;;;;;;;;;6.27;5.55;;;;;;2668963;76;20475;-89
2023/03/19 04:01:40;;;;;;;;;;;6.36;5.24;;;;;;2669304;76;21230;-88
2023/03/19 04:05:09;;;;;;;;;;;6.44;4.62;;;;;;2669528;76;20473;-89
2023/03/19 04:08:37;;;;;;;;;;;6.45;4.28;;;;;;2669158;76;20436;-88
2023/03/19 04:12:05;;;;;;;;;;;6.48;4.20;;;;;;2669965;76;20486;-88
2023/03/19 04:15:36;;;;;;;;;;;6.50;4.34;;;;;;2669356;76;20493;-88
2023/03/19 04:19:06;;;;;;;;;;;6.58;4.38;;;;;;2667682;76;20505;-88
2023/03/19 04:22:34;;;;;;;;;;;6.63;4.37;;;;;;2669070;76;20440;-89
2023/03/19 04:26:02;;;;;;;;;;;6.69;4.24;;;;;;2669378;76;20970;-89
2023/03/19 04:29:30;;;;;;;;;;;6.74;4.15;;;;;;2669001;76;20483;-89
2023/03/19 04:32:59;;;;;;;;;;;6.78;4.10;;;;;;2670485;76;20454;-89
2023/03/19 04:36:27;;;;;;;;;;;6.84;4.09;;;;;;2669984;76;20461;-88
2023/03/19 04:39:59;;;;;;;;;;;6.83;4.52;;;;;;2669491;76;20886;-88
2023/03/19 04:43:28;;;;;;;;;;;6.83;5.04;;;;;;2670021;76;20449;-88
2023/03/19 04:46:57;;;;;;;;;;;6.91;5.44;;;;;;2669412;76;20499;-88
2023/03/19 04:50:26;;;;;;;;;;;7.07;5.41;;;;;;2669443;76;21007;-88
2023/03/19 04:53:54;;;;;;;;;;;7.15;5.17;;;;;;2670508;76;20314;-88
2023/03/19 04:57:22;;;;;;;;;;;7.15;5.01;;;;;;2668325;76;20572;-88
2023/03/19 05:00:51;;;;;;;;;;;7.24;5.15;;;;;;2669488;76;20495;-89
2023/03/19 05:04:19;;;;;;;;;;;7.22;5.41;;;;;;2669340;76;20458;-89
2023/03/19 05:07:47;;;;;;;;;;;7.25;5.84;;;;;;2668961;76;20791;-89
2023/03/19 05:11:15;;;;;;;;;;;7.34;5.95;;;;;;2669623;76;20358;-89
2023/03/19 05:14:43;;;;;;;;;;;7.42;6.05;;;;;;2669436;76;20931;-89
2023/03/19 05:18:11;;;;;;;;;;;7.44;6.90;;;;;;2669246;76;20481;-88
2023/03/19 05:21:39;;;;;;;;;;;7.58;7.29;;;;;;2669841;76;20459;-88
2023/03/19 05:25:08;;;;;;;;;;;7.64;7.76;;;;;;2670088;76;20818;-88
2023/03/19 05:28:36;;;;;;;;;;;7.61;8.40;;;;;;2668592;76;20586;-89
2023/03/19 05:32:04;;;;;;;;;;;7.65;9.36;;;;;;2668461;76;21023;-89
2023/03/19 05:35:33;;;;;;;;;;;7.75;9.53;;;;;;2669470;76;20518;-88
2023/03/19 05:39:02;;;;;;;;;;;7.84;9.43;;;;;;2667408;76;20862;-88
2023/03/19 05:42:31;;;;;;;;;;;7.98;8.97;;;;;;2669106;76;20462;-88
2023/03/19 05:45:59;;;;;;;;;;;8.13;8.51;;;;;;2669920;76;20487;-88
2023/03/19 05:49:27;;;;;;;;;;;8.23;8.18;;;;;;2668988;76;20848;-88
2023/03/19 05:52:55;;;;;;;;;;;8.31;7.92;;;;;;2669827;76;20809;-87
2023/03/19 05:56:23;;;;;;;;;;;8.38;7.76;;;;;;2670087;76;20935;-89
2023/03/19 05:59:54;;;;;;;;;;;8.34;7.88;;;;;;2669768;76;20493;-89
2023/03/19 06:03:22;;;;;;;;;;;8.38;8.25;;;;;;2670013;76;20538;-87
2023/03/19 06:06:53;;;;;;;;;;;8.49;8.18;;;;;;2669063;76;20460;-88
2023/03/19 06:10:21;;;;;;;;;;;8.59;7.99;;;;;;2669693;76;21001;-89
2023/03/19 06:13:49;;;;;;;;;;;8.62;8.21;;;;;;2670398;76;20481;-88
2023/03/19 06:17:19;;;;;;;;;;;8.62;8.79;;;;;;2668732;76;20496;-88
2023/03/19 06:20:47;;;;;;;;;;;8.59;9.91;;;;;;2670227;76;20472;-87
2023/03/19 06:24:15;;;;;;;;;;;8.80;10.03;;;;;;2670279;76;20455;-87
2023/03/19 06:27:43;;;;;;;;;;;9.06;9.66;;;;;;2669874;76;21031;-88
2023/03/19 06:31:13;;;;;;;;;;;9.31;9.21;;;;;;2669386;76;20490;-88
2023/03/19 06:34:41;;;;;;;;;;;9.47;8.92;;;;;;2670419;76;20507;-88
2023/03/19 06:38:09;;;;;;;;;;;9.65;8.83;;;;;;2666944;76;21216;-89
2023/03/19 06:41:43;;;;;;;;;;;9.75;8.80;;;;;;2668809;76;21049;-88
2023/03/19 06:45:11;;;;;;;;;;;9.83;8.95;;;;;;2670157;76;20452;-90
2023/03/19 06:48:39;;;;;;;;;;;9.75;9.26;;;;;;2668123;76;20568;-90
2023/03/19 06:52:10;;;;;;;;;;;9.80;10.05;;;;;;2667354;76;20469;-90
2023/03/19 06:55:39;;;;;;;;;;;9.80;10.20;;;;;;2669620;76;20483;-89
2023/03/19 06:59:07;;;;;;;;;;;9.91;10.13;;;;;;2668895;76;20446;-90
2023/03/19 07:02:35;;;;;;;;;;;9.89;10.17;;;;;;2670246;76;20471;-89
2023/03/19 07:06:06;;;;;;;;;;;9.89;10.61;;;;;;2668025;76;20831;-89
2023/03/19 07:09:36;;;;;;;;;;;10.07;10.51;;;;;;2668087;76;20484;-90
2023/03/19 07:13:05;;;;;;;;;;;10.43;9.92;;;;;;2668918;76;20645;-90
2023/03/19 07:16:38;;;;;;;;;;;10.66;9.76;;;;;;2668702;76;20477;-88
2023/03/19 07:20:07;;;;;;;;;;;10.99;9.19;;;;;;2669122;76;20449;-88
2023/03/19 07:23:35;;;;;;;;;;;11.28;8.79;;;;;;2667860;76;20477;-88
2023/03/19 07:27:03;;;;;;;;;;;11.26;8.12;;;;;;2666562;76;20453;-89
2023/03/19 07:30:39;;;;;;;;;;;11.48;8.31;;;;;;2669272;76;20457;-88
2023/03/19 07:34:01;;;;;;;;;;;11.43;7.85;;;;;;2668694;76;20500;-88
2023/03/19 07:37:29;;;;;;;;;;;11.29;7.89;;;;;;2668629;76;20352;-88
2023/03/19 07:40:58;;;;;;;;;;;11.34;8.07;;;;;;2668213;76;20466;-88
2023/03/19 07:44:26;;;;;;;;;;;11.94;7.55;;;;;;2668326;76;20453;-87
2023/03/19 07:47:54;;;;;;;;;;;12.52;6.99;;;;;;2667814;76;20465;-89
2023/03/19 07:51:22;;;;;;;;;;;12.72;5.76;;;;;;2667032;76;20491;-88
2023/03/19 07:54:51;;;;;;;;;;;13.26;5.63;;;;;;2669547;76;21000;-89
2023/03/19 07:58:19;;;;;;;;;;;13.27;4.09;;;;;;2669513;76;20485;-88
2023/03/19 08:01:49;;;;;;;;;;;13.12;3.83;;;;;;2667436;76;20633;-88
2023/03/19 08:05:17;;;;;;;;;;;13.12;3.66;;;;;;2669672;76;20262;-88
2023/03/19 08:08:46;;;;;;;;;;;12.92;3.16;;;;;;2669265;76;20445;-89
2023/03/19 08:12:14;;;;;;;;;;;12.75;3.36;;;;;;2669041;76;20470;-89
2023/03/19 08:15:42;;;;;;;;;;;12.46;4.23;;;;;;2669455;76;20823;-90
2023/03/19 08:19:13;;;;;;;;;;;12.60;5.31;;;;;;2669268;76;20738;-89
2023/03/19 08:22:41;;;;;;;;;;;12.50;5.34;;;;;;2670890;76;20453;-90
2023/03/19 08:26:12;;;;;;;;;;;12.51;6.21;;;;;;2670852;76;20437;-88
2023/03/19 08:29:40;;;;;;;;;;;12.38;6.75;;;;;;2670171;76;20453;-89
2023/03/19 08:33:09;;;;;;;;;;;12.47;6.45;;;;;;2667484;76;20459;-89
2023/03/19 08:36:37;;;;;;;;;;;12.92;5.96;;;;;;2668118;76;20439;-88
2023/03/19 08:40:06;;;;;;;;;;;13.01;5.77;;;;;;2670054;76;20950;-91
2023/03/19 08:43:35;;;;;;;;;;;13.40;5.10;;;;;;2668703;76;20460;-91
2023/03/19 08:47:03;;;;;;;;;;;13.66;4.77;;;;;;2669600;76;20480;-91
2023/03/19 08:50:31;;;;;;;;;;;14.07;4.22;;;;;;2669599;76;20465;-91
2023/03/19 08:53:59;;;;;;;;;;;13.97;3.96;;;;;;2669381;76;20449;-91
2023/03/19 08:57:28;;;;;;;;;;;14.30;3.96;;;;;;2668578;76;20486;-91
2023/03/19 09:00:56;;;;;;;;;;;14.27;3.22;;;;;;2668919;76;20434;-92
2023/03/19 09:04:24;;;;;;;;;;;14.37;3.56;;;;;;2669315;76;20461;-92
2023/03/19 09:07:52;;;;;;;;;;;14.68;3.32;;;;;;2669410;76;20457;-91
2023/03/19 09:11:22;;;;;;;;;;;14.73;3.29;;;;;;2669771;76;20325;-90
2023/03/19 09:14:50;;;;;;;;;;;14.41;3.41;;;;;;2669378;76;20498;-91
2023/03/19 09:18:19;;;;;;;;;;;14.32;3.06;;;;;;2670709;76;20983;-91
2023/03/19 09:21:47;;;;;;;;;;;13.89;3.51;;;;;;2667250;76;20466;-92
2023/03/19 09:25:15;;;;;;;;;;;14.01;4.50;;;;;;2668438;76;20365;-91
2023/03/19 09:28:43;;;;;;;;;;;13.90;4.94;;;;;;2669442;76;20446;-91
2023/03/19 09:32:11;;;;;;;;;;;14.12;4.44;;;;;;2670017;76;20449;-91
2023/03/19 09:35:40;;;;;;;;;;;13.56;5.63;;;;;;2668420;76;20448;-91
2023/03/19 09:39:08;;;;;;;;;;;13.84;5.60;;;;;;2669512;76;20440;-90
2023/03/19 09:42:36;;;;;;;;;;;13.58;6.26;;;;;;2667964;76;20465;-90
2023/03/19 09:46:04;;;;;;;;;;;13.54;7.02;;;;;;2667081;76;20702;-91
2023/03/19 09:49:32;;;;;;;;;;;13.70;6.97;;;;;;2668095;76;20487;-91
2023/03/19 09:53:01;;;;;;;;;;;13.96;7.63;;;;;;2670270;76;20345;-90
2023/03/19 09:56:29;;;;;;;;;;;13.76;7.61;;;;;;2670977;76;20439;-90
2023/03/19 09:59:58;;;;;;;;;;;13.59;8.79;;;;;;2668542;76;20470;-90
2023/03/19 10:03:26;;;;;;;;;;;13.52;9.14;;;;;;2670014;76;20456;-90
2023/03/19 10:06:54;;;;;;;;;;;13.51;8.96;;;;;;2669296;76;20474;-91
2023/03/19 10:10:23;;;;;;;;;;;13.29;9.60;;;;;;2670245;76;20461;-90
2023/03/19 10:13:51;;;;;;;;;;;13.36;9.85;;;;;;2671528;76;20437;-91
2023/03/19 10:17:19;;;;;;;;;;;12.99;10.61;;;;;;2669682;76;20459;-90
2023/03/19 10:20:47;;;;;;;;;;;13.04;11.37;;;;;;2669031;76;20478;-91
2023/03/19 10:24:15;;;;;;;;;;;13.05;11.63;;;;;;2670897;76;20469;-90
2023/03/19 10:27:43;;;;;;;;;;;13.00;11.95;;;;;;2670916;76;20339;-90
2023/03/19 10:31:12;;;;;;;;;;;13.66;11.75;;;;;;2671454;76;20418;-91
2023/03/19 10:34:40;;;;;;;;;;;13.70;11.17;;;;;;2671009;76;20880;-90
2023/03/19 10:38:08;;;;;;;;;;;13.86;11.40;;;;;;2670055;76;20368;-91
2023/03/19 10:41:36;;;;;;;;;;;13.46;11.43;;;;;;2670354;76;20438;-91
2023/03/19 10:45:04;;;;;;;;;;;13.95;11.94;;;;;;2669936;76;20345;-90
2023/03/19 10:48:33;;;;;;;;;;;14.48;11.33;;;;;;2668746;76;20419;-90
2023/03/19 10:52:02;;;;;;;;;;;14.71;10.36;;;;;;2668391;76;20954;-91
2023/03/19 10:55:30;;;;;;;;;;;14.98;10.45;;;;;;2670456;76;20798;-91
2023/03/19 10:58:58;;;;;;;;;;;15.13;9.30;;;;;;2668715;76;20485;-91
2023/03/19 11:02:29;;;;;;;;;;;15.11;8.28;;;;;;2669946;76;20495;-90
2023/03/19 11:05:56;;;;;;;;;;;15.56;7.08;;;;;;2671269;76;20514;-91
2023/03/19 11:09:24;;;;;;;;;;;15.77;4.62;;;;;;2670167;76;20970;-91
2023/03/19 11:12:52;;;;;;;;;;;15.82;2.80;;;;;;2669486;76;20931;-91
2023/03/19 11:16:20;;;;;;;;;;;16.10;3.25;;;;;;2669925;76;21219;-91
2023/03/19 11:19:49;;;;;;;;;;;16.30;3.06;;;;;;2670282;76;21411;-90
2023/03/19 11:23:17;;;;;;;;;;;16.58;3.16;;;;;;2670589;76;20425;-91
2023/03/19 11:26:45;;;;;;;;;;;16.44;2.14;;;;;;2671001;76;20445;-91
2023/03/19 11:30:13;;;;;;;;;;;17.18;1.87;;;;;;2670784;76;20428;-91
2023/03/19 11:33:44;;;;;;;;;;;17.56;0.45;;;;;;2670301;76;20450;-90
2023/03/19 11:37:12;;;;;;;;;;;17.65;-0.32;;;;;;2671398;76;20441;-91
2023/03/19 11:40:40;;;;;;;;;;;17.55;-1.05;;;;;;2670763;76;20501;-90
2023/03/19 11:44:08;;;;;;;;;;;17.48;-1.59;;;;;;2670969;76;20452;-91
2023/03/19 11:47:36;;;;;;;;;;;17.09;-2.46;;;;;;2669759;76;20451;-91
2023/03/19 11:51:04;;;;;;;;;;;16.75;-1.70;;;;;;2670367;76;20748;-91
2023/03/19 11:54:32;;;;;;;;;;;17.34;-1.34;;;;;;2670368;76;20483;-91
2023/03/19 11:58:00;;;;;;;;;;;17.73;-1.96;;;;;;2667858;76;20439;-90
2023/03/19 12:01:30;;;;;;;;;;;18.26;-1.95;;;;;;2668269;76;22408;-90
2023/03/19 12:04:58;;;;;;;;;;;18.29;-3.66;;;;;;2669498;76;20480;-91
2023/03/19 12:08:26;;;;;;;;;;;17.94;-4.17;;;;;;2668455;76;21034;-90
2023/03/19 12:11:54;;;;;;;;;;;17.04;-4.73;;;;;;2670657;76;20924;-91
2023/03/19 12:15:22;;;;;;;;;;;17.09;-2.72;;;;;;2670374;76;20453;-91
2023/03/19 12:18:51;;;;;;;;;;;17.30;-3.24;;;;;;2669476;76;21208;-91
2023/03/19 12:22:19;;;;;;;;;;;18.10;-3.02;;;;;;2668436;76;20469;-91
2023/03/19 12:25:47;;;;;;;;;;;19.16;-3.73;;;;;;2668345;76;20453;-91
2023/03/19 12:29:16;;;;;;;;;;;19.56;-5.95;;;;;;2668136;76;20995;-91
2023/03/19 12:32:45;;;;;;;;;;;19.65;-5.78;;;;;;2669381;76;20421;-92
2023/03/19 12:36:13;;;;;;;;;;;19.59;-5.56;;;;;;2668239;76;20488;-91
2023/03/19 12:39:41;;;;;;;;;;;19.27;118.72;;;;;;2669663;76;20896;-91
2023/03/19 12:43:09;;;;;;;;;;;18.79;117.91;;;;;;2671668;76;20424;-91
2023/03/19 12:46:37;;;;;;;;;;;17.85;117.34;;;;;;2671364;76;20453;-91
2023/03/19 12:50:06;;;;;;;;;;;17.82;117.37;;;;;;2666840;76;20457;-90
2023/03/19 12:53:34;;;;;;;;;;;17.87;117.90;;;;;;2670366;76;20483;-89
2023/03/19 12:57:07;;;;;;;;;;;17.68;117.44;;;;;;2666845;76;20425;-89
2023/03/19 13:00:33;;;;;;;;;;;17.45;117.95;;;;;;2668018;76;20460;-90
2023/03/19 13:04:01;;;;;;;;;;;17.14;118.51;;;;;;2667831;76;20369;-90
2023/03/19 13:07:29;;;;;;;;;;;16.88;-5.94;;;;;;2668989;76;21590;-88
2023/03/19 13:10:57;;;;;;;;;;;16.08;-5.75;;;;;;2668751;76;21120;-88
2023/03/19 13:14:25;;;;;;;;;;;15.53;-4.37;;;;;;2668799;76;20451;-88
2023/03/19 13:17:54;;;;;;;;;;;15.21;-3.23;;;;;;2665945;76;20472;-89
2023/03/19 13:21:22;;;;;;;;;;;15.07;-2.30;;;;;;2666825;76;20317;-90
2023/03/19 13:24:51;;;;;;;;;;;14.78;-1.55;;;;;;2670360;76;20442;-89
2023/03/19 13:28:19;;;;;;;;;;;14.69;-1.70;;;;;;2670004;76;20431;-89
2023/03/19 13:31:47;;;;;;;;;;;14.51;-1.01;;;;;;2666169;76;20900;-88
2023/03/19 13:35:15;;;;;;;;;;;14.42;-0.80;;;;;;2666355;76;20461;-89
2023/03/19 13:38:43;;;;;;;;;;;14.17;0.70;;;;;;2665993;76;20876;-89
2023/03/19 13:42:12;;;;;;;;;;;14.12;1.44;;;;;;2668661;76;20473;-89
2023/03/19 13:45:40;;;;;;;;;;;14.39;0.87;;;;;;2669364;76;20345;-88
2023/03/19 13:49:08;;;;;;;;;;;14.71;0.47;;;;;;2668650;76;20492;-89
2023/03/19 13:52:36;;;;;;;;;;;14.66;1.52;;;;;;2668784;76;20467;-90
2023/03/19 13:56:04;;;;;;;;;;;14.66;2.83;;;;;;2668175;76;20441;-90
2023/03/19 13:59:32;;;;;;;;;;;14.58;4.46;;;;;;2668653;76;20848;-90
2023/03/19 14:03:00;;;;;;;;;;;15.12;4.31;;;;;;2668939;76;20990;-89
2023/03/19 14:06:29;;;;;;;;;;;15.78;3.10;;;;;;2667229;76;20909;-91
2023/03/19 14:09:58;;;;;;;;;;;16.31;1.85;;;;;;2668607;76;20479;-88
2023/03/19 14:13:26;;;;;;;;;;;17.03;1.06;;;;;;2669767;76;20522;-88
2023/03/19 14:20:55;;;;;;;;;;;;;;;;;;;;;
2023/03/19 14:29:34;;;;;;;;;;;18.36;-2.06;;;;;;2665538;76;20972;-90
2023/03/19 14:33:38;;;;;;;;;;;18.28;-1.67;;;;;;2668034;76;20360;-91
2023/03/19 14:37:07;;;;;;;;;;;18.28;-1.99;;;;;;2667975;76;21342;-92
2023/03/19 14:40:38;;;;;;;;;;;18.41;-1.99;;;;;;2667343;76;20447;-92
2023/03/19 14:44:23;;;;;;;;;;;;;;;;;;;;;
2023/03/19 14:47:54;;;;;;;;;;;18.57;-2.57;;;;;;2667916;76;20363;-91
2023/03/19 15:09:47;;;;;;;;;;;18.61;117.10;;;;;;2667410;76;20457;-92
2023/03/19 15:13:08;;;;;;;;;;;18.80;117.47;;;;;;2667999;76;20875;-91
2023/03/19 15:16:37;;;;;;;;;;;18.82;117.21;;;;;;2669207;76;20479;-92
2023/03/19 15:20:06;;;;;;;;;;;19.46;117.31;;;;;;2668162;76;20421;-92
2023/03/19 15:33:15;;;;;;;;;;;;;;;;;;;;;
2023/03/19 15:37:01;;;;;;;;;;;18.69;117.32;;;;;;2667714;76;20461;-93
2023/03/19 16:02:38;;;;;;;;;;;19.28;113.17;;;;;;2667325;76;20429;-93
2023/03/19 16:34:42;;;;;;;;;;;15.72;117.20;;;;;;2668016;76;20368;-88
2023/03/19 16:38:17;;;;;;;;;;;15.48;117.42;;;;;;2667941;76;20484;-88
2023/03/19 16:41:52;;;;;;;;;;;15.26;117.68;;;;;;2664794;76;20480;-89
2023/03/19 16:56:36;;;;;;;;;;;14.45;118.80;;;;;;2666696;76;20878;-92
2023/03/19 17:00:10;;;;;;;;;;;14.27;-5.88;;;;;;2668642;76;20440;-91
2023/03/19 17:03:49;;;;;;;;;;;;;;;;;;;;;
2023/03/19 17:35:15;;;;;;;;;;;;;;;;;;;;;
2023/03/19 17:47:04;;;;;;;;;;;12.60;-2.93;;;;;;2666911;76;20417;-89
2023/03/19 17:50:32;;;;;;;;;;;12.51;-2.99;;;;;;2669830;76;20352;-92
2023/03/19 18:05:39;;;;;;;;;;;12.18;-2.54;;;;;;2667311;76;20451;-91
2023/03/19 18:12:54;;;;;;;;;;;12.12;-2.22;;;;;;2666651;76;20483;-93
2023/03/19 18:16:28;;;;;;;;;;;12.10;-2.10;;;;;;2667069;76;20508;-92
2023/03/19 18:58:47;;;;;;;;;;;11.64;-0.31;;;;;;2666002;76;20492;-91
2023/03/19 19:49:07;;;;;;;;;;;11.12;9.27;;;;;;2664464;76;20468;-91
2023/03/19 20:16:57;;;;;;;;;;;10.71;15.61;;;;;;2678547;76;20415;-95
2023/03/19 20:20:27;;;;;;;;;;;10.65;16.46;;;;;;2667933;76;20469;-92
2023/03/19 20:23:57;;;;;;;;;;;10.62;16.51;;;;;;2666727;76;20504;-93
2023/03/19 20:27:25;;;;;;;;;;;10.62;16.83;;;;;;2667350;76;20437;-93
2023/03/19 20:30:53;;;;;;;;;;;10.64;16.96;;;;;;2666120;76;20761;-95
2023/03/19 20:34:21;;;;;;;;;;;10.64;17.38;;;;;;2667948;76;20458;-92
2023/03/19 20:37:50;;;;;;;;;;;10.50;19.48;;;;;;2666649;76;20996;-93
2023/03/19 20:41:19;;;;;;;;;;;10.44;21.26;;;;;;2666722;76;20951;-92
2023/03/19 20:44:47;;;;;;;;;;;10.28;22.69;;;;;;2668196;76;20460;-92
2023/03/19 20:48:19;;;;;;;;;;;10.21;24.41;;;;;;2667465;76;20479;-94
2023/03/19 20:51:47;;;;;;;;;;;10.35;24.27;;;;;;2664729;76;20457;-91
2023/03/19 20:55:16;;;;;;;;;;;10.27;26.07;;;;;;2667223;76;20450;-92
2023/03/19 20:58:44;;;;;;;;;;;10.34;25.76;;;;;;2667284;76;20473;-92
2023/03/19 21:02:12;;;;;;;;;;;10.33;26.79;;;;;;2666592;76;20437;-92
2023/03/19 21:05:40;;;;;;;;;;;10.38;27.13;;;;;;2668237;76;20321;-92
2023/03/19 21:09:08;;;;;;;;;;;10.34;27.89;;;;;;2668011;76;20422;-93
2023/03/19 21:12:37;;;;;;;;;;;10.48;27.16;;;;;;2667346;76;20471;-92
2023/03/19 21:16:05;;;;;;;;;;;10.45;27.78;;;;;;2665453;76;20955;-92
2023/03/19 21:19:36;;;;;;;;;;;10.54;27.52;;;;;;2669260;76;20457;-91
2023/03/19 21:23:03;;;;;;;;;;;10.35;29.74;;;;;;2670462;76;20437;-92
2023/03/19 21:26:31;;;;;;;;;;;10.34;30.54;;;;;;2668790;76;20484;-91
2023/03/19 21:29:59;;;;;;;;;;;10.40;30.32;;;;;;2668923;76;20729;-92
2023/03/19 21:33:27;;;;;;;;;;;10.40;30.84;;;;;;2670873;76;20441;-92
2023/03/19 21:36:55;;;;;;;;;;;10.37;31.90;;;;;;2669192;76;20549;-91
2023/03/19 21:40:23;;;;;;;;;;;10.33;32.76;;;;;;2670123;76;20465;-92
2023/03/19 21:43:52;;;;;;;;;;;10.40;32.94;;;;;;2669227;76;20452;-92
2023/03/19 21:47:21;;;;;;;;;;;10.48;32.48;;;;;;2670335;76;20483;-92
2023/03/19 21:50:52;;;;;;;;;;;10.51;32.17;;;;;;2670373;76;21123;-92
2023/03/19 21:54:19;;;;;;;;;;;10.50;32.16;;;;;;2669816;76;20432;-93
2023/03/19 21:57:48;;;;;;;;;;;10.53;31.93;;;;;;2669359;76;20474;-92
2023/03/19 22:01:16;;;;;;;;;;;10.54;31.73;;;;;;2670384;76;20928;-91
2023/03/19 22:04:44;;;;;;;;;;;10.57;31.54;;;;;;2670777;76;20459;-92
2023/03/19 22:08:15;;;;;;;;;;;10.55;31.73;;;;;;2670841;76;20453;-91
2023/03/19 22:11:44;;;;;;;;;;;10.51;31.66;;;;;;2670306;76;20511;-92
2023/03/19 22:15:13;;;;;;;;;;;10.48;31.86;;;;;;2669868;76;20460;-90
2023/03/19 22:18:42;;;;;;;;;;;10.48;31.96;;;;;;2670966;76;20339;-92
2023/03/19 22:22:11;;;;;;;;;;;10.46;32.08;;;;;;2670248;76;20443;-92
2023/03/19 22:25:39;;;;;;;;;;;10.52;31.99;;;;;;2671208;76;20452;-91
2023/03/19 22:29:07;;;;;;;;;;;10.52;31.83;;;;;;2669619;76;20481;-92
2023/03/19 22:32:35;;;;;;;;;;;10.52;31.70;;;;;;2671264;76;20437;-91
2023/03/19 22:36:03;;;;;;;;;;;10.50;31.80;;;;;;2671278;76;20446;-91
2023/03/19 22:39:31;;;;;;;;;;;10.49;31.78;;;;;;2671421;76;20459;-91
2023/03/19 22:42:59;;;;;;;;;;;10.49;31.83;;;;;;2670758;76;20469;-91
2023/03/19 22:46:27;;;;;;;;;;;10.48;31.90;;;;;;2670566;76;20443;-91
2023/03/19 22:49:56;;;;;;;;;;;10.50;31.98;;;;;;2670713;76;20466;-91
2023/03/19 22:53:24;;;;;;;;;;;10.48;32.12;;;;;;2670445;76;20440;-92
2023/03/19 22:56:52;;;;;;;;;;;10.43;32.48;;;;;;2670276;76;20476;-91
2023/03/19 23:00:20;;;;;;;;;;;10.44;32.56;;;;;;2669740;76;20474;-92
2023/03/19 23:03:48;;;;;;;;;;;10.50;32.52;;;;;;2670927;76;20478;-92
2023/03/19 23:07:16;;;;;;;;;;;10.50;32.46;;;;;;2670952;76;20482;-92
2023/03/19 23:10:44;;;;;;;;;;;10.49;32.42;;;;;;2671284;76;20488;-91
2023/03/19 23:14:12;;;;;;;;;;;10.44;32.51;;;;;;2670139;76;20448;-92
2023/03/19 23:17:41;;;;;;;;;;;10.42;32.55;;;;;;2671011;76;20467;-91
2023/03/19 23:21:09;;;;;;;;;;;10.38;32.55;;;;;;2670735;76;20691;-91
2023/03/19 23:24:37;;;;;;;;;;;10.34;32.81;;;;;;2671072;76;20503;-91
2023/03/19 23:28:05;;;;;;;;;;;10.30;33.10;;;;;;2670764;76;20496;-93
2023/03/19 23:31:33;;;;;;;;;;;10.25;33.38;;;;;;2670594;76;20456;-91
2023/03/19 23:35:01;;;;;;;;;;;10.19;33.76;;;;;;2671384;76;20436;-92
2023/03/19 23:38:30;;;;;;;;;;;10.20;33.79;;;;;;2670995;76;20454;-92
2023/03/19 23:41:59;;;;;;;;;;;10.20;33.79;;;;;;2671081;76;20417;-91
2023/03/19 23:45:27;;;;;;;;;;;10.20;34.01;;;;;;2669925;76;20893;-92
2023/03/19 23:48:55;;;;;;;;;;;10.21;33.99;;;;;;2671314;76;20448;-91
2023/03/19 23:52:24;;;;;;;;;;;10.20;34.07;;;;;;2671492;76;20439;-92
2023/03/19 23:55:52;;;;;;;;;;;10.13;34.30;;;;;;2671332;76;20654;-92
2023/03/19 23:59:20;;;;;;;;;;;10.10;34.84;;;;;;2671202;76;20686;-93
